sensor_id;sensor_type;location;lat;lon;timestamp;temperature;humidity
66128;DHT22;52925;52.436;-1.952;2024-03-06T05:22:59;7.70;99.90
66128;DHT22;52925;52.436;-1.952;2024-03-06T05:24:20;7.60;99.90
66128;DHT22;52925;52.436;-1.952;2024-03-06T05:25:40;7.60;99.90
66128;DHT22;52925;52.436;-1.952;2024-03-06T05:27:01;7.60;99.90
66128;DHT22;52925;52.436;-1.952;2024-03-06T05:28:21;7.60;99.90
66128;DHT22;52925;52.436;-1.952;2024-03-06T05:29:42;7.70;99.90
66128;DHT22;52925;52.436;-1.952;2024-03-06T05:31:16;7.60;99.90
66128;DHT22;52925;52.436;-1.952;2024-03-06T05:32:38;7.70;99.90
66128;DHT22;52925;52.436;-1.952;2024-03-06T05:33:58;7.60;99.90
66128;DHT22;52925;52.436;-1.952;2024-03-06T05:35:20;7.60;99.90
66128;DHT22;52925;52.436;-1.952;2024-03-06T05:36:40;7.60;99.90
66128;DHT22;52925;52.436;-1.952;2024-03-06T05:38:02;7.60;99.90
66128;DHT22;52925;52.436;-1.952;2024-03-06T05:39:22;7.60;99.90
66128;DHT22;52925;52.436;-1.952;2024-03-06T05:40:42;7.60;99.90
66128;DHT22;52925;52.436;-1.952;2024-03-06T05:42:05;7.60;99.90
66128;DHT22;52925;52.436;-1.952;2024-03-06T05:43:25;7.60;99.90
66128;DHT22;52925;52.436;-1.952;2024-03-06T05:44:45;7.60;99.90
66128;DHT22;52925;52.436;-1.952;2024-03-06T05:46:08;7.60;99.90
66128;DHT22;52925;52.436;-1.952;2024-03-06T05:47:27;7.60;99.90
66128;DHT22;52925;52.436;-1.952;2024-03-06T05:48:50;7.70;99.90
66128;DHT22;52925;52.436;-1.952;2024-03-06T05:50:11;7.70;99.90
66128;DHT22;52925;52.436;-1.952;2024-03-06T05:51:31;7.70;99.90
66128;DHT22;52925;52.436;-1.952;2024-03-06T05:52:51;7.70;99.90
66128;DHT22;52925;52.436;-1.952;2024-03-06T05:54:13;7.70;99.90
66128;DHT22;52925;52.436;-1.952;2024-03-06T05:55:33;7.60;99.90
66128;DHT22;52925;52.436;-1.952;2024-03-06T05:56:54;7.70;99.90
66128;DHT22;52925;52.436;-1.952;2024-03-06T05:58:13;7.70;99.90
66128;DHT22;52925;52.436;-1.952;2024-03-06T05:59:35;7.60;99.90
66128;DHT22;52925;52.436;-1.952;2024-03-06T06:00:57;7.60;99.90
66128;DHT22;52925;52.436;-1.952;2024-03-06T06:02:17;7.70;99.90
66128;DHT22;52925;52.436;-1.952;2024-03-06T06:03:39;7.70;99.90
66128;DHT22;52925;52.436;-1.952;2024-03-06T06:04:59;7.70;99.90
66128;DHT22;52925;52.436;-1.952;2024-03-06T06:06:19;7.60;99.90
66128;DHT22;52925;52.436;-1.952;2024-03-06T06:07:40;7.70;99.90
66128;DHT22;52925;52.436;-1.952;2024-03-06T06:09:00;7.60;99.90
66128;DHT22;52925;52.436;-1.952;2024-03-06T06:10:22;7.60;99.90
66128;DHT22;52925;52.436;-1.952;2024-03-06T06:11:42;7.60;99.90
66128;DHT22;52925;52.436;-1.952;2024-03-06T06:13:03;7.60;99.90
66128;DHT22;52925;52.436;-1.952;2024-03-06T06:14:23;7.60;99.90
66128;DHT22;52925;52.436;-1.952;2024-03-06T06:15:46;7.60;99.90
66128;DHT22;52925;52.436;-1.952;2024-03-06T06:17:05;7.60;99.90
66128;DHT22;52925;52.436;-1.952;2024-03-06T06:18:26;7.60;99.90
66128;DHT22;52925;52.436;-1.952;2024-03-06T06:19:46;7.60;99.90
66128;DHT22;52925;52.436;-1.952;2024-03-06T06:21:07;7.60;99.90
66128;DHT22;52925;52.436;-1.952;2024-03-06T06:22:27;7.60;99.90
66128;DHT22;52925;52.436;-1.952;2024-03-06T06:23:48;7.60;99.90
66128;DHT22;52925;52.436;-1.952;2024-03-06T06:25:08;7.60;99.90
66128;DHT22;52925;52.436;-1.952;2024-03-06T06:26:31;7.60;99.90
66128;DHT22;52925;52.436;-1.952;2024-03-06T06:27:50;7.60;99.90
66128;DHT22;52925;52.436;-1.952;2024-03-06T06:29:11;7.60;99.90
66128;DHT22;52925;52.436;-1.952;2024-03-06T06:30:31;7.60;99.90
66128;DHT22;52925;52.436;-1.952;2024-03-06T06:31:52;7.70;99.90
66128;DHT22;52925;52.436;-1.952;2024-03-06T06:33:12;7.60;99.90
66128;DHT22;52925;52.436;-1.952;2024-03-06T06:34:33;7.60;99.90
66128;DHT22;52925;52.436;-1.952;2024-03-06T06:35:53;7.60;99.90
66128;DHT22;52925;52.436;-1.952;2024-03-06T06:37:14;7.60;99.90
66128;DHT22;52925;52.436;-1.952;2024-03-06T06:38:34;7.60;99.90
66128;DHT22;52925;52.436;-1.952;2024-03-06T06:39:55;7.60;99.90
66128;DHT22;52925;52.436;-1.952;2024-03-06T06:41:15;7.60;99.90
66128;DHT22;52925;52.436;-1.952;2024-03-06T06:42:37;7.60;99.90
66128;DHT22;52925;52.436;-1.952;2024-03-06T06:43:57;7.60;99.90
66128;DHT22;52925;52.436;-1.952;2024-03-06T06:45:19;7.60;99.90
66128;DHT22;52925;52.436;-1.952;2024-03-06T06:46:40;7.60;99.90
66128;DHT22;52925;52.436;-1.952;2024-03-06T06:48:02;7.60;99.90
66128;DHT22;52925;52.436;-1.952;2024-03-06T06:49:22;7.60;99.90
66128;DHT22;52925;52.436;-1.952;2024-03-06T06:50:43;7.60;99.90
66128;DHT22;52925;52.436;-1.952;2024-03-06T06:52:03;7.60;99.90
66128;DHT22;52925;52.436;-1.952;2024-03-06T06:53:24;7.60;99.90
66128;DHT22;52925;52.436;-1.952;2024-03-06T06:54:43;7.60;99.90
66128;DHT22;52925;52.436;-1.952;2024-03-06T06:56:05;7.50;99.90
66128;DHT22;52925;52.436;-1.952;2024-03-06T06:57:24;7.50;99.90
66128;DHT22;52925;52.436;-1.952;2024-03-06T06:58:47;7.60;99.90
66128;DHT22;52925;52.436;-1.952;2024-03-06T07:00:08;7.60;99.90
66128;DHT22;52925;52.436;-1.952;2024-03-06T07:01:31;7.60;99.90
66128;DHT22;52925;52.436;-1.952;2024-03-06T07:02:52;7.60;99.90
66128;DHT22;52925;52.436;-1.952;2024-03-06T07:04:13;7.60;99.90
66128;DHT22;52925;52.436;-1.952;2024-03-06T07:05:35;7.60;99.90
66128;DHT22;52925;52.436;-1.952;2024-03-06T07:06:56;7.60;99.90
66128;DHT22;52925;52.436;-1.952;2024-03-06T07:08:16;7.60;99.90
66128;DHT22;52925;52.436;-1.952;2024-03-06T07:09:37;7.60;99.90
66128;DHT22;52925;52.436;-1.952;2024-03-06T07:10:57;7.60;99.90
66128;DHT22;52925;52.436;-1.952;2024-03-06T07:12:17;7.60;99.90
66128;DHT22;52925;52.436;-1.952;2024-03-06T07:13:37;7.60;99.90
66128;DHT22;52925;52.436;-1.952;2024-03-06T07:14:59;7.60;99.90
66128;DHT22;52925;52.436;-1.952;2024-03-06T07:16:19;7.60;99.90
66128;DHT22;52925;52.436;-1.952;2024-03-06T16:39:35;9.50;99.90
66128;DHT22;52925;52.436;-1.952;2024-03-06T16:40:59;9.60;99.90
66128;DHT22;52925;52.436;-1.952;2024-03-06T16:42:20;9.60;99.90
66128;DHT22;52925;52.436;-1.952;2024-03-06T16:43:40;9.60;99.90
66128;DHT22;52925;52.436;-1.952;2024-03-06T16:45:01;9.60;99.90
66128;DHT22;52925;52.436;-1.952;2024-03-06T16:46:20;9.60;99.90
66128;DHT22;52925;52.436;-1.952;2024-03-06T16:47:45;9.60;99.90
66128;DHT22;52925;52.436;-1.952;2024-03-06T16:49:05;9.60;99.90
66128;DHT22;52925;52.436;-1.952;2024-03-06T16:50:26;9.60;99.90
66128;DHT22;52925;52.436;-1.952;2024-03-06T16:51:48;9.70;99.90
66128;DHT22;52925;52.436;-1.952;2024-03-06T16:53:08;9.60;99.90
66128;DHT22;52925;52.436;-1.952;2024-03-06T16:54:28;9.70;99.90
66128;DHT22;52925;52.436;-1.952;2024-03-06T16:55:49;9.70;99.90
66128;DHT22;52925;52.436;-1.952;2024-03-06T16:57:11;9.70;99.90
66128;DHT22;52925;52.436;-1.952;2024-03-06T16:58:31;9.70;99.90
66128;DHT22;52925;52.436;-1.952;2024-03-06T16:59:52;9.70;99.90
66128;DHT22;52925;52.436;-1.952;2024-03-06T17:01:12;9.70;99.90
66128;DHT22;52925;52.436;-1.952;2024-03-06T17:02:32;9.70;99.90
66128;DHT22;52925;52.436;-1.952;2024-03-06T17:03:52;9.70;99.90
66128;DHT22;52925;52.436;-1.952;2024-03-06T17:05:13;9.70;99.90
66128;DHT22;52925;52.436;-1.952;2024-03-06T17:06:33;9.70;99.90
66128;DHT22;52925;52.436;-1.952;2024-03-06T17:07:54;9.70;99.90
66128;DHT22;52925;52.436;-1.952;2024-03-06T17:09:14;9.70;99.90
66128;DHT22;52925;52.436;-1.952;2024-03-06T17:10:35;9.70;99.90
66128;DHT22;52925;52.436;-1.952;2024-03-06T17:11:54;9.80;99.90
66128;DHT22;52925;52.436;-1.952;2024-03-06T17:13:17;9.80;99.90
66128;DHT22;52925;52.436;-1.952;2024-03-06T17:14:37;9.70;99.90
66128;DHT22;52925;52.436;-1.952;2024-03-06T17:15:57;9.70;99.90
66128;DHT22;52925;52.436;-1.952;2024-03-06T17:17:18;9.70;99.90
66128;DHT22;52925;52.436;-1.952;2024-03-06T17:18:39;9.80;99.90
66128;DHT22;52925;52.436;-1.952;2024-03-06T17:20:00;9.70;99.90
66128;DHT22;52925;52.436;-1.952;2024-03-06T17:21:21;9.80;99.90
66128;DHT22;52925;52.436;-1.952;2024-03-06T17:22:41;9.70;99.90
66128;DHT22;52925;52.436;-1.952;2024-03-06T17:24:03;9.80;99.90
66128;DHT22;52925;52.436;-1.952;2024-03-06T17:25:24;9.80;99.90
66128;DHT22;52925;52.436;-1.952;2024-03-06T17:26:45;9.80;99.90
66128;DHT22;52925;52.436;-1.952;2024-03-06T17:28:05;9.80;99.90
66128;DHT22;52925;52.436;-1.952;2024-03-06T17:29:29;9.80;99.90
66128;DHT22;52925;52.436;-1.952;2024-03-06T17:30:49;9.80;99.90
66128;DHT22;52925;52.436;-1.952;2024-03-06T17:32:09;9.80;99.90
66128;DHT22;52925;52.436;-1.952;2024-03-06T17:33:30;9.80;99.90
66128;DHT22;52925;52.436;-1.952;2024-03-06T17:34:50;9.80;99.90
66128;DHT22;52925;52.436;-1.952;2024-03-06T17:36:10;9.80;99.90
66128;DHT22;52925;52.436;-1.952;2024-03-06T17:37:30;9.80;99.90
66128;DHT22;52925;52.436;-1.952;2024-03-06T17:38:51;9.80;99.90
66128;DHT22;52925;52.436;-1.952;2024-03-06T17:40:11;9.80;99.90
66128;DHT22;52925;52.436;-1.952;2024-03-06T17:41:33;9.80;99.90
66128;DHT22;52925;52.436;-1.952;2024-03-06T17:42:53;9.80;99.90
66128;DHT22;52925;52.436;-1.952;2024-03-06T17:44:14;9.70;99.90
66128;DHT22;52925;52.436;-1.952;2024-03-06T17:45:36;9.70;99.90
66128;DHT22;52925;52.436;-1.952;2024-03-06T17:46:57;9.70;99.90
66128;DHT22;52925;52.436;-1.952;2024-03-06T17:48:17;9.70;99.90
66128;DHT22;52925;52.436;-1.952;2024-03-06T17:49:38;9.60;99.90
66128;DHT22;52925;52.436;-1.952;2024-03-06T17:50:58;9.60;99.90
66128;DHT22;52925;52.436;-1.952;2024-03-06T17:52:19;9.60;99.90
66128;DHT22;52925;52.436;-1.952;2024-03-06T17:53:39;9.60;99.90
66128;DHT22;52925;52.436;-1.952;2024-03-06T17:55:00;9.60;99.90
66128;DHT22;52925;52.436;-1.952;2024-03-06T17:56:20;9.70;99.90
66128;DHT22;52925;52.436;-1.952;2024-03-06T17:57:40;9.70;99.90
66128;DHT22;52925;52.436;-1.952;2024-03-06T17:59:04;9.70;99.90
66128;DHT22;52925;52.436;-1.952;2024-03-06T18:00:26;9.80;99.90
66128;DHT22;52925;52.436;-1.952;2024-03-06T18:01:47;9.80;99.90
66128;DHT22;52925;52.436;-1.952;2024-03-06T18:03:08;9.80;99.90
66128;DHT22;52925;52.436;-1.952;2024-03-06T18:04:30;9.90;99.90
66128;DHT22;52925;52.436;-1.952;2024-03-06T18:05:51;9.90;99.90
66128;DHT22;52925;52.436;-1.952;2024-03-06T18:07:11;9.80;99.90
66128;DHT22;52925;52.436;-1.952;2024-03-06T18:08:31;9.80;99.90
66128;DHT22;52925;52.436;-1.952;2024-03-06T18:09:51;9.80;99.90
66128;DHT22;52925;52.436;-1.952;2024-03-06T18:11:13;9.70;99.90
66128;DHT22;52925;52.436;-1.952;2024-03-06T18:12:34;9.80;99.90
66128;DHT22;52925;52.436;-1.952;2024-03-06T18:13:55;9.80;99.90
66128;DHT22;52925;52.436;-1.952;2024-03-06T18:15:15;9.80;99.90
66128;DHT22;52925;52.436;-1.952;2024-03-06T18:16:35;9.80;99.90
66128;DHT22;52925;52.436;-1.952;2024-03-06T18:17:58;9.80;99.90
66128;DHT22;52925;52.436;-1.952;2024-03-06T18:19:18;9.80;99.90
66128;DHT22;52925;52.436;-1.952;2024-03-06T18:20:38;9.80;99.90
66128;DHT22;52925;52.436;-1.952;2024-03-06T18:21:59;9.80;99.90
66128;DHT22;52925;52.436;-1.952;2024-03-06T18:23:19;9.80;99.90
66128;DHT22;52925;52.436;-1.952;2024-03-06T18:24:39;9.80;99.90
66128;DHT22;52925;52.436;-1.952;2024-03-06T18:25:59;9.80;99.90
66128;DHT22;52925;52.436;-1.952;2024-03-06T18:27:20;9.80;99.90
66128;DHT22;52925;52.436;-1.952;2024-03-06T18:28:40;9.80;99.90
66128;DHT22;52925;52.436;-1.952;2024-03-06T18:30:02;9.80;99.90
66128;DHT22;52925;52.436;-1.952;2024-03-06T18:31:22;9.80;99.90
66128;DHT22;52925;52.436;-1.952;2024-03-06T18:32:43;9.80;99.90
66128;DHT22;52925;52.436;-1.952;2024-03-06T18:34:04;9.80;99.90
66128;DHT22;52925;52.436;-1.952;2024-03-06T18:35:24;9.80;99.90
66128;DHT22;52925;52.436;-1.952;2024-03-06T18:36:44;9.80;99.90
66128;DHT22;52925;52.436;-1.952;2024-03-06T18:38:05;9.80;99.90
66128;DHT22;52925;52.436;-1.952;2024-03-06T18:39:26;9.80;99.90
66128;DHT22;52925;52.436;-1.952;2024-03-06T18:40:46;9.80;99.90
66128;DHT22;52925;52.436;-1.952;2024-03-06T18:42:06;9.80;99.90
66128;DHT22;52925;52.436;-1.952;2024-03-06T18:43:27;9.80;99.90
66128;DHT22;52925;52.436;-1.952;2024-03-06T18:44:47;9.80;99.90
66128;DHT22;52925;52.436;-1.952;2024-03-06T18:46:08;9.80;99.90
66128;DHT22;52925;52.436;-1.952;2024-03-06T18:47:28;9.80;99.90
66128;DHT22;52925;52.436;-1.952;2024-03-06T18:48:49;9.70;99.90
66128;DHT22;52925;52.436;-1.952;2024-03-06T18:50:10;9.80;99.90
66128;DHT22;52925;52.436;-1.952;2024-03-06T18:51:31;9.70;99.90
66128;DHT22;52925;52.436;-1.952;2024-03-06T18:52:51;9.70;99.90
66128;DHT22;52925;52.436;-1.952;2024-03-06T18:54:13;9.70;99.90
66128;DHT22;52925;52.436;-1.952;2024-03-06T18:55:33;9.70;99.90
66128;DHT22;52925;52.436;-1.952;2024-03-06T18:56:56;9.70;99.90
66128;DHT22;52925;52.436;-1.952;2024-03-06T18:58:15;9.70;99.90
66128;DHT22;52925;52.436;-1.952;2024-03-06T18:59:36;9.70;99.90
66128;DHT22;52925;52.436;-1.952;2024-03-06T19:00:57;9.70;99.90
66128;DHT22;52925;52.436;-1.952;2024-03-06T19:02:18;9.70;99.90
66128;DHT22;52925;52.436;-1.952;2024-03-06T19:03:38;9.70;99.90
66128;DHT22;52925;52.436;-1.952;2024-03-06T19:04:59;9.70;99.90
66128;DHT22;52925;52.436;-1.952;2024-03-06T19:06:20;9.70;99.90
66128;DHT22;52925;52.436;-1.952;2024-03-06T19:07:41;9.60;99.90
66128;DHT22;52925;52.436;-1.952;2024-03-06T19:09:03;9.70;99.90
66128;DHT22;52925;52.436;-1.952;2024-03-06T19:10:24;9.70;99.90
66128;DHT22;52925;52.436;-1.952;2024-03-06T19:11:44;9.70;99.90
66128;DHT22;52925;52.436;-1.952;2024-03-06T19:13:07;9.60;99.90
66128;DHT22;52925;52.436;-1.952;2024-03-06T19:14:27;9.70;99.90
66128;DHT22;52925;52.436;-1.952;2024-03-06T19:15:47;9.70;99.90
66128;DHT22;52925;52.436;-1.952;2024-03-06T19:17:08;9.70;99.90
66128;DHT22;52925;52.436;-1.952;2024-03-06T19:18:28;9.60;99.90
66128;DHT22;52925;52.436;-1.952;2024-03-06T19:19:49;9.60;99.90
66128;DHT22;52925;52.436;-1.952;2024-03-06T19:21:11;9.60;99.90
66128;DHT22;52925;52.436;-1.952;2024-03-06T19:22:33;9.60;99.90
66128;DHT22;52925;52.436;-1.952;2024-03-06T19:23:53;9.70;99.90
66128;DHT22;52925;52.436;-1.952;2024-03-06T19:25:14;9.60;99.90
66128;DHT22;52925;52.436;-1.952;2024-03-06T19:26:34;9.60;99.90
66128;DHT22;52925;52.436;-1.952;2024-03-06T19:27:55;9.70;99.90
66128;DHT22;52925;52.436;-1.952;2024-03-06T19:29:15;9.70;99.90
66128;DHT22;52925;52.436;-1.952;2024-03-06T19:30:36;9.70;99.90
66128;DHT22;52925;52.436;-1.952;2024-03-06T19:31:56;9.70;99.90
66128;DHT22;52925;52.436;-1.952;2024-03-06T19:33:17;9.60;99.90
66128;DHT22;52925;52.436;-1.952;2024-03-06T19:34:36;9.60;99.90
66128;DHT22;52925;52.436;-1.952;2024-03-06T19:35:57;9.60;99.90
66128;DHT22;52925;52.436;-1.952;2024-03-06T19:37:17;9.60;99.90
66128;DHT22;52925;52.436;-1.952;2024-03-06T19:38:39;9.60;99.90
66128;DHT22;52925;52.436;-1.952;2024-03-06T19:39:59;9.60;99.90
66128;DHT22;52925;52.436;-1.952;2024-03-06T19:41:21;9.60;99.90
66128;DHT22;52925;52.436;-1.952;2024-03-06T19:42:40;9.60;99.90
66128;DHT22;52925;52.436;-1.952;2024-03-06T19:44:01;9.60;99.90
66128;DHT22;52925;52.436;-1.952;2024-03-06T19:45:23;9.60;99.90
66128;DHT22;52925;52.436;-1.952;2024-03-06T19:46:44;9.60;99.90
66128;DHT22;52925;52.436;-1.952;2024-03-06T19:48:04;9.70;99.90
66128;DHT22;52925;52.436;-1.952;2024-03-06T19:49:25;9.60;99.90
66128;DHT22;52925;52.436;-1.952;2024-03-06T19:50:45;9.60;99.90
66128;DHT22;52925;52.436;-1.952;2024-03-06T19:52:06;9.60;99.90
66128;DHT22;52925;52.436;-1.952;2024-03-06T19:53:26;9.60;99.90
66128;DHT22;52925;52.436;-1.952;2024-03-06T19:54:48;9.60;99.90
66128;DHT22;52925;52.436;-1.952;2024-03-06T19:56:11;9.60;99.90
66128;DHT22;52925;52.436;-1.952;2024-03-06T19:57:32;9.60;99.90
66128;DHT22;52925;52.436;-1.952;2024-03-06T19:58:53;9.60;99.90
66128;DHT22;52925;52.436;-1.952;2024-03-06T20:00:15;9.60;99.90
66128;DHT22;52925;52.436;-1.952;2024-03-06T20:01:35;9.70;99.90
66128;DHT22;52925;52.436;-1.952;2024-03-06T20:02:56;9.60;99.90
66128;DHT22;52925;52.436;-1.952;2024-03-06T20:04:16;9.60;99.90
66128;DHT22;52925;52.436;-1.952;2024-03-06T20:05:37;9.60;99.90
66128;DHT22;52925;52.436;-1.952;2024-03-06T20:06:57;9.60;99.90
66128;DHT22;52925;52.436;-1.952;2024-03-06T20:08:18;9.60;99.90
66128;DHT22;52925;52.436;-1.952;2024-03-06T20:09:38;9.60;99.90
66128;DHT22;52925;52.436;-1.952;2024-03-06T20:11:01;9.60;99.90
66128;DHT22;52925;52.436;-1.952;2024-03-06T20:12:23;9.60;99.90
66128;DHT22;52925;52.436;-1.952;2024-03-06T20:13:43;9.60;99.90
66128;DHT22;52925;52.436;-1.952;2024-03-06T20:15:05;9.70;99.90
66128;DHT22;52925;52.436;-1.952;2024-03-06T20:16:26;9.60;99.90
66128;DHT22;52925;52.436;-1.952;2024-03-06T20:17:47;9.70;99.90
66128;DHT22;52925;52.436;-1.952;2024-03-06T20:19:06;9.70;99.90
66128;DHT22;52925;52.436;-1.952;2024-03-06T20:20:28;9.60;99.90
66128;DHT22;52925;52.436;-1.952;2024-03-06T20:21:48;9.60;99.90
66128;DHT22;52925;52.436;-1.952;2024-03-06T20:23:09;9.60;99.90
66128;DHT22;52925;52.436;-1.952;2024-03-06T20:24:29;9.70;99.90
66128;DHT22;52925;52.436;-1.952;2024-03-06T20:25:49;9.70;99.90
66128;DHT22;52925;52.436;-1.952;2024-03-06T20:27:11;9.60;99.90
66128;DHT22;52925;52.436;-1.952;2024-03-06T20:28:32;9.60;99.90
66128;DHT22;52925;52.436;-1.952;2024-03-06T20:29:52;9.70;99.90
66128;DHT22;52925;52.436;-1.952;2024-03-06T20:31:13;9.70;99.90
66128;DHT22;52925;52.436;-1.952;2024-03-06T20:32:33;9.60;99.90
66128;DHT22;52925;52.436;-1.952;2024-03-06T20:33:54;9.60;99.90
66128;DHT22;52925;52.436;-1.952;2024-03-06T20:35:14;9.60;99.90
66128;DHT22;52925;52.436;-1.952;2024-03-06T20:36:39;9.60;99.90
66128;DHT22;52925;52.436;-1.952;2024-03-06T20:37:59;9.60;99.90
66128;DHT22;52925;52.436;-1.952;2024-03-06T20:39:20;9.60;99.90
66128;DHT22;52925;52.436;-1.952;2024-03-06T20:40:41;9.60;99.90
66128;DHT22;52925;52.436;-1.952;2024-03-06T20:42:04;9.50;99.90
66128;DHT22;52925;52.436;-1.952;2024-03-06T20:43:27;9.50;99.90
66128;DHT22;52925;52.436;-1.952;2024-03-06T20:44:49;9.60;99.90
66128;DHT22;52925;52.436;-1.952;2024-03-06T20:46:08;9.60;99.90
66128;DHT22;52925;52.436;-1.952;2024-03-06T20:47:29;9.60;99.90
66128;DHT22;52925;52.436;-1.952;2024-03-06T20:48:49;9.50;99.90
66128;DHT22;52925;52.436;-1.952;2024-03-06T20:50:10;9.50;99.90
66128;DHT22;52925;52.436;-1.952;2024-03-06T20:51:30;9.50;99.90
66128;DHT22;52925;52.436;-1.952;2024-03-06T20:52:51;9.50;99.90
66128;DHT22;52925;52.436;-1.952;2024-03-06T20:54:11;9.50;99.90
66128;DHT22;52925;52.436;-1.952;2024-03-06T20:55:32;9.50;99.90
66128;DHT22;52925;52.436;-1.952;2024-03-06T20:56:52;9.50;99.90
66128;DHT22;52925;52.436;-1.952;2024-03-06T20:58:13;9.60;99.90
66128;DHT22;52925;52.436;-1.952;2024-03-06T20:59:35;9.50;99.90
66128;DHT22;52925;52.436;-1.952;2024-03-06T21:00:55;9.50;99.90
66128;DHT22;52925;52.436;-1.952;2024-03-06T21:02:15;9.50;99.90
66128;DHT22;52925;52.436;-1.952;2024-03-06T21:03:36;9.50;99.90
66128;DHT22;52925;52.436;-1.952;2024-03-06T21:04:57;9.50;99.90
66128;DHT22;52925;52.436;-1.952;2024-03-06T21:06:18;9.50;99.90
66128;DHT22;52925;52.436;-1.952;2024-03-06T21:07:38;9.50;99.90
66128;DHT22;52925;52.436;-1.952;2024-03-06T21:09:00;9.50;99.90
66128;DHT22;52925;52.436;-1.952;2024-03-06T21:10:20;9.50;99.90
66128;DHT22;52925;52.436;-1.952;2024-03-06T21:11:41;9.50;99.90
66128;DHT22;52925;52.436;-1.952;2024-03-06T21:13:01;9.50;99.90
66128;DHT22;52925;52.436;-1.952;2024-03-06T21:14:22;9.50;99.90
66128;DHT22;52925;52.436;-1.952;2024-03-06T21:15:43;9.50;99.90
66128;DHT22;52925;52.436;-1.952;2024-03-06T21:17:06;9.50;99.90
66128;DHT22;52925;52.436;-1.952;2024-03-06T21:18:26;9.40;99.90
66128;DHT22;52925;52.436;-1.952;2024-03-06T21:19:46;9.40;99.90
66128;DHT22;52925;52.436;-1.952;2024-03-06T21:21:06;9.40;99.90
66128;DHT22;52925;52.436;-1.952;2024-03-06T21:22:27;9.40;99.90
66128;DHT22;52925;52.436;-1.952;2024-03-06T21:23:47;9.40;99.90
66128;DHT22;52925;52.436;-1.952;2024-03-06T21:25:09;9.40;99.90
66128;DHT22;52925;52.436;-1.952;2024-03-06T21:26:29;9.40;99.90
66128;DHT22;52925;52.436;-1.952;2024-03-06T21:27:50;9.30;99.90
66128;DHT22;52925;52.436;-1.952;2024-03-06T21:29:09;9.40;99.90
66128;DHT22;52925;52.436;-1.952;2024-03-06T21:30:30;9.40;99.90
66128;DHT22;52925;52.436;-1.952;2024-03-06T21:31:52;9.30;99.90
66128;DHT22;52925;52.436;-1.952;2024-03-06T21:33:13;9.40;99.90
66128;DHT22;52925;52.436;-1.952;2024-03-06T21:34:34;9.40;99.90
66128;DHT22;52925;52.436;-1.952;2024-03-06T21:35:56;9.30;99.90
66128;DHT22;52925;52.436;-1.952;2024-03-06T21:37:15;9.30;99.90
66128;DHT22;52925;52.436;-1.952;2024-03-06T21:38:36;9.40;99.90
66128;DHT22;52925;52.436;-1.952;2024-03-06T21:39:56;9.40;99.90
66128;DHT22;52925;52.436;-1.952;2024-03-06T21:41:18;9.30;99.90
66128;DHT22;52925;52.436;-1.952;2024-03-06T21:42:38;9.30;99.90
66128;DHT22;52925;52.436;-1.952;2024-03-06T21:43:58;9.30;99.90
66128;DHT22;52925;52.436;-1.952;2024-03-06T21:45:19;9.30;99.90
66128;DHT22;52925;52.436;-1.952;2024-03-06T21:46:40;9.30;99.90
66128;DHT22;52925;52.436;-1.952;2024-03-06T21:48:02;9.40;99.90
66128;DHT22;52925;52.436;-1.952;2024-03-06T21:49:22;9.30;99.90
66128;DHT22;52925;52.436;-1.952;2024-03-06T21:50:43;9.30;99.90
66128;DHT22;52925;52.436;-1.952;2024-03-06T21:52:03;9.30;99.90
66128;DHT22;52925;52.436;-1.952;2024-03-06T21:53:25;9.30;99.90
66128;DHT22;52925;52.436;-1.952;2024-03-06T21:54:45;9.30;99.90
66128;DHT22;52925;52.436;-1.952;2024-03-06T21:56:07;9.30;99.90
66128;DHT22;52925;52.436;-1.952;2024-03-06T21:57:30;9.20;99.90
66128;DHT22;52925;52.436;-1.952;2024-03-06T21:58:49;9.30;99.90
66128;DHT22;52925;52.436;-1.952;2024-03-06T22:00:11;9.30;99.90
66128;DHT22;52925;52.436;-1.952;2024-03-06T22:01:34;9.30;99.90
66128;DHT22;52925;52.436;-1.952;2024-03-06T22:02:55;9.30;99.90
66128;DHT22;52925;52.436;-1.952;2024-03-06T22:04:16;9.30;99.90
66128;DHT22;52925;52.436;-1.952;2024-03-06T22:05:36;9.30;99.90
66128;DHT22;52925;52.436;-1.952;2024-03-06T22:06:56;9.30;99.90
66128;DHT22;52925;52.436;-1.952;2024-03-06T22:08:19;9.20;99.90
66128;DHT22;52925;52.436;-1.952;2024-03-06T22:09:39;9.30;99.90
66128;DHT22;52925;52.436;-1.952;2024-03-06T22:10:59;9.20;99.90
66128;DHT22;52925;52.436;-1.952;2024-03-06T22:12:20;9.20;99.90
66128;DHT22;52925;52.436;-1.952;2024-03-06T22:13:42;9.20;99.90
66128;DHT22;52925;52.436;-1.952;2024-03-06T22:15:03;9.20;99.90
66128;DHT22;52925;52.436;-1.952;2024-03-06T22:16:24;9.20;99.90
66128;DHT22;52925;52.436;-1.952;2024-03-06T22:17:44;9.20;99.90
66128;DHT22;52925;52.436;-1.952;2024-03-06T22:19:06;9.20;99.90
66128;DHT22;52925;52.436;-1.952;2024-03-06T22:20:27;9.30;99.90
66128;DHT22;52925;52.436;-1.952;2024-03-06T22:21:48;9.30;99.90
66128;DHT22;52925;52.436;-1.952;2024-03-06T22:23:08;9.30;99.90
66128;DHT22;52925;52.436;-1.952;2024-03-06T22:24:29;9.40;99.90
66128;DHT22;52925;52.436;-1.952;2024-03-06T22:25:49;9.30;99.90
66128;DHT22;52925;52.436;-1.952;2024-03-06T22:27:09;9.30;99.90
66128;DHT22;52925;52.436;-1.952;2024-03-06T22:28:30;9.30;99.90
66128;DHT22;52925;52.436;-1.952;2024-03-06T22:29:51;9.30;99.90
66128;DHT22;52925;52.436;-1.952;2024-03-06T22:31:11;9.30;99.90
66128;DHT22;52925;52.436;-1.952;2024-03-06T22:32:32;9.30;99.90
66128;DHT22;52925;52.436;-1.952;2024-03-06T22:33:52;9.30;99.90
66128;DHT22;52925;52.436;-1.952;2024-03-06T22:35:13;9.30;99.90
66128;DHT22;52925;52.436;-1.952;2024-03-06T22:36:34;9.30;99.90
66128;DHT22;52925;52.436;-1.952;2024-03-06T22:37:56;9.30;99.90
66128;DHT22;52925;52.436;-1.952;2024-03-06T22:39:16;9.30;99.90
66128;DHT22;52925;52.436;-1.952;2024-03-06T22:40:38;9.30;99.90
66128;DHT22;52925;52.436;-1.952;2024-03-06T22:41:58;9.30;99.90
66128;DHT22;52925;52.436;-1.952;2024-03-06T22:43:19;9.30;99.90
66128;DHT22;52925;52.436;-1.952;2024-03-06T22:44:39;9.30;99.90
66128;DHT22;52925;52.436;-1.952;2024-03-06T22:46:00;9.30;99.90
66128;DHT22;52925;52.436;-1.952;2024-03-06T22:47:20;9.30;99.90
66128;DHT22;52925;52.436;-1.952;2024-03-06T22:48:41;9.30;99.90
66128;DHT22;52925;52.436;-1.952;2024-03-06T22:50:01;9.30;99.90
66128;DHT22;52925;52.436;-1.952;2024-03-06T22:51:22;9.30;99.90
66128;DHT22;52925;52.436;-1.952;2024-03-06T22:52:43;9.30;99.90
66128;DHT22;52925;52.436;-1.952;2024-03-06T22:54:04;9.30;99.90
66128;DHT22;52925;52.436;-1.952;2024-03-06T22:55:25;9.30;99.90
66128;DHT22;52925;52.436;-1.952;2024-03-06T22:56:45;9.20;99.90
66128;DHT22;52925;52.436;-1.952;2024-03-06T22:58:06;9.30;99.90
66128;DHT22;52925;52.436;-1.952;2024-03-06T22:59:26;9.20;99.90
66128;DHT22;52925;52.436;-1.952;2024-03-06T23:00:47;9.20;99.90
66128;DHT22;52925;52.436;-1.952;2024-03-06T23:02:07;9.20;99.90
66128;DHT22;52925;52.436;-1.952;2024-03-06T23:03:29;9.20;99.90
66128;DHT22;52925;52.436;-1.952;2024-03-06T23:04:49;9.10;99.90
66128;DHT22;52925;52.436;-1.952;2024-03-06T23:06:11;9.10;99.90
66128;DHT22;52925;52.436;-1.952;2024-03-06T23:07:31;9.20;99.90
66128;DHT22;52925;52.436;-1.952;2024-03-06T23:08:54;9.20;99.90
66128;DHT22;52925;52.436;-1.952;2024-03-06T23:10:14;9.10;99.90
66128;DHT22;52925;52.436;-1.952;2024-03-06T23:11:37;9.10;99.90
66128;DHT22;52925;52.436;-1.952;2024-03-06T23:12:57;9.10;99.90
66128;DHT22;52925;52.436;-1.952;2024-03-06T23:14:18;9.10;99.90
